sensor_id;sensor_type;location;lat;lon;timestamp;pressure;altitude;pressure_sealevel;temperature;humidity
68793;BME280;55778;54.346;10.210;2023-05-20T00:00:08;102513.75;;;9.03;99.16
68793;BME280;55778;54.346;10.210;2023-05-20T00:02:35;102505.41;;;9.06;99.38
68793;BME280;55778;54.346;10.210;2023-05-20T00:05:00;102507.06;;;9.09;98.92
68793;BME280;55778;54.346;10.210;2023-05-20T00:07:26;102509.59;;;9.12;98.22
68793;BME280;55778;54.346;10.210;2023-05-20T00:09:51;102506.06;;;9.10;98.44
68793;BME280;55778;54.346;10.210;2023-05-20T00:12:17;102505.97;;;9.11;97.57
68793;BME280;55778;54.346;10.210;2023-05-20T00:14:42;102504.44;;;9.07;97.41
68793;BME280;55778;54.346;10.210;2023-05-20T00:17:08;102505.31;;;9.08;96.29
68793;BME280;55778;54.346;10.210;2023-05-20T00:19:33;102507.56;;;9.15;96.08
68793;BME280;55778;54.346;10.210;2023-05-20T00:21:59;102503.50;;;9.22;95.40
68793;BME280;55778;54.346;10.210;2023-05-20T00:24:24;102497.53;;;9.16;95.34
68793;BME280;55778;54.346;10.210;2023-05-20T00:26:50;102502.31;;;9.12;95.73
68793;BME280;55778;54.346;10.210;2023-05-20T00:29:15;102498.53;;;9.15;95.06
68793;BME280;55778;54.346;10.210;2023-05-20T00:31:41;102502.09;;;9.01;96.02
68793;BME280;55778;54.346;10.210;2023-05-20T00:34:07;102496.38;;;9.06;96.02
68793;BME280;55778;54.346;10.210;2023-05-20T00:36:34;102498.38;;;9.02;96.21
68793;BME280;55778;54.346;10.210;2023-05-20T00:38:59;102503.81;;;9.02;95.64
68793;BME280;55778;54.346;10.210;2023-05-20T00:41:24;102495.47;;;9.05;95.95
68793;BME280;55778;54.346;10.210;2023-05-20T00:43:53;102499.56;;;8.98;95.99
68793;BME280;55778;54.346;10.210;2023-05-20T00:46:20;102495.66;;;9.02;95.87
68793;BME280;55778;54.346;10.210;2023-05-20T00:48:45;102493.03;;;9.01;96.18
68793;BME280;55778;54.346;10.210;2023-05-20T00:51:12;102502.28;;;8.98;96.59
68793;BME280;55778;54.346;10.210;2023-05-20T00:53:38;102498.66;;;8.98;96.83
68793;BME280;55778;54.346;10.210;2023-05-20T00:56:04;102497.81;;;8.97;97.10
68793;BME280;55778;54.346;10.210;2023-05-20T00:58:30;102501.84;;;8.90;97.37
68793;BME280;55778;54.346;10.210;2023-05-20T01:00:56;102491.44;;;8.83;98.11
68793;BME280;55778;54.346;10.210;2023-05-20T01:03:22;102497.94;;;8.80;98.35
68793;BME280;55778;54.346;10.210;2023-05-20T01:05:47;102500.75;;;8.79;98.88
68793;BME280;55778;54.346;10.210;2023-05-20T01:08:12;102495.56;;;8.90;98.55
68793;BME280;55778;54.346;10.210;2023-05-20T01:10:41;102494.56;;;8.91;98.36
68793;BME280;55778;54.346;10.210;2023-05-20T01:13:10;102486.78;;;8.85;97.87
68793;BME280;55778;54.346;10.210;2023-05-20T01:15:39;102487.25;;;8.77;98.14
68793;BME280;55778;54.346;10.210;2023-05-20T01:18:07;102488.44;;;8.87;97.67
68793;BME280;55778;54.346;10.210;2023-05-20T01:20:35;102485.41;;;8.78;97.43
68793;BME280;55778;54.346;10.210;2023-05-20T01:23:02;102484.53;;;8.77;97.24
68793;BME280;55778;54.346;10.210;2023-05-20T01:25:28;102480.78;;;8.80;96.85
68793;BME280;55778;54.346;10.210;2023-05-20T01:27:55;102486.22;;;8.80;96.82
68793;BME280;55778;54.346;10.210;2023-05-20T01:30:28;102482.25;;;8.85;95.82
68793;BME280;55778;54.346;10.210;2023-05-20T01:32:59;102476.09;;;8.82;95.67
68793;BME280;55778;54.346;10.210;2023-05-20T01:35:26;102481.72;;;8.79;95.09
68793;BME280;55778;54.346;10.210;2023-05-20T01:37:52;102483.69;;;8.77;95.22
68793;BME280;55778;54.346;10.210;2023-05-20T01:40:20;102478.34;;;8.89;94.03
68793;BME280;55778;54.346;10.210;2023-05-20T01:42:46;102478.72;;;8.83;93.38
68793;BME280;55778;54.346;10.210;2023-05-20T01:45:17;102473.63;;;8.93;92.31
68793;BME280;55778;54.346;10.210;2023-05-20T01:47:44;102478.97;;;8.94;91.85
68793;BME280;55778;54.346;10.210;2023-05-20T01:50:10;102476.44;;;8.91;91.44
68793;BME280;55778;54.346;10.210;2023-05-20T01:52:35;102469.59;;;8.84;91.49
68793;BME280;55778;54.346;10.210;2023-05-20T01:55:01;102469.50;;;8.86;90.81
68793;BME280;55778;54.346;10.210;2023-05-20T01:57:26;102467.94;;;8.82;91.01
68793;BME280;55778;54.346;10.210;2023-05-20T01:59:51;102469.78;;;8.81;90.90
68793;BME280;55778;54.346;10.210;2023-05-20T02:02:17;102464.16;;;8.84;90.58
68793;BME280;55778;54.346;10.210;2023-05-20T02:04:44;102460.50;;;8.85;90.52
68793;BME280;55778;54.346;10.210;2023-05-20T02:07:13;102462.31;;;8.85;90.47
68793;BME280;55778;54.346;10.210;2023-05-20T02:09:38;102457.25;;;8.79;90.56
68793;BME280;55778;54.346;10.210;2023-05-20T02:12:04;102455.44;;;8.79;90.82
68793;BME280;55778;54.346;10.210;2023-05-20T02:14:30;102456.16;;;8.67;90.85
68793;BME280;55778;54.346;10.210;2023-05-20T02:16:55;102451.66;;;8.52;91.34
68793;BME280;55778;54.346;10.210;2023-05-20T02:19:21;102446.53;;;8.32;92.36
68793;BME280;55778;54.346;10.210;2023-05-20T02:21:48;102444.50;;;8.36;92.82
68793;BME280;55778;54.346;10.210;2023-05-20T02:24:14;102453.84;;;8.46;92.94
68793;BME280;55778;54.346;10.210;2023-05-20T02:26:40;102447.66;;;8.44;93.68
68793;BME280;55778;54.346;10.210;2023-05-20T02:29:06;102448.72;;;8.41;94.66
68793;BME280;55778;54.346;10.210;2023-05-20T02:31:31;102446.28;;;8.37;95.35
68793;BME280;55778;54.346;10.210;2023-05-20T02:33:56;102448.47;;;8.30;95.88
68793;BME280;55778;54.346;10.210;2023-05-20T02:36:22;102458.44;;;8.30;97.26
68793;BME280;55778;54.346;10.210;2023-05-20T02:38:47;102464.41;;;8.36;97.82
68793;BME280;55778;54.346;10.210;2023-05-20T02:41:13;102470.44;;;8.41;98.10
68793;BME280;55778;54.346;10.210;2023-05-20T02:43:38;102477.19;;;8.34;98.69
68793;BME280;55778;54.346;10.210;2023-05-20T02:46:05;102461.41;;;8.41;98.23
68793;BME280;55778;54.346;10.210;2023-05-20T02:48:30;102459.28;;;8.46;98.70
68793;BME280;55778;54.346;10.210;2023-05-20T02:50:57;102460.03;;;8.34;98.82
68793;BME280;55778;54.346;10.210;2023-05-20T02:53:22;102471.34;;;8.26;99.34
68793;BME280;55778;54.346;10.210;2023-05-20T02:55:48;102466.22;;;8.20;99.81
68793;BME280;55778;54.346;10.210;2023-05-20T02:58:14;102475.00;;;8.25;99.77
68793;BME280;55778;54.346;10.210;2023-05-20T03:00:39;102467.91;;;8.38;99.10
68793;BME280;55778;54.346;10.210;2023-05-20T03:03:06;102467.13;;;8.36;98.70
68793;BME280;55778;54.346;10.210;2023-05-20T03:05:34;102469.47;;;8.27;98.88
68793;BME280;55778;54.346;10.210;2023-05-20T03:08:08;102466.50;;;8.31;98.87
68793;BME280;55778;54.346;10.210;2023-05-20T03:10:37;102460.69;;;8.37;98.54
68793;BME280;55778;54.346;10.210;2023-05-20T03:13:04;102458.59;;;8.42;97.68
68793;BME280;55778;54.346;10.210;2023-05-20T03:15:36;102459.53;;;8.57;96.80
68793;BME280;55778;54.346;10.210;2023-05-20T03:18:02;102461.81;;;8.49;96.38
68793;BME280;55778;54.346;10.210;2023-05-20T03:20:28;102460.06;;;8.48;96.18
68793;BME280;55778;54.346;10.210;2023-05-20T03:22:54;102455.44;;;8.50;96.41
68793;BME280;55778;54.346;10.210;2023-05-20T03:25:21;102461.22;;;8.44;96.05
68793;BME280;55778;54.346;10.210;2023-05-20T03:27:46;102456.25;;;8.36;96.68
68793;BME280;55778;54.346;10.210;2023-05-20T03:30:12;102464.44;;;8.50;96.03
68793;BME280;55778;54.346;10.210;2023-05-20T03:32:38;102459.28;;;8.46;96.02
68793;BME280;55778;54.346;10.210;2023-05-20T03:35:04;102459.97;;;8.49;95.70
68793;BME280;55778;54.346;10.210;2023-05-20T03:37:29;102463.94;;;8.44;95.84
68793;BME280;55778;54.346;10.210;2023-05-20T03:39:55;102460.50;;;8.56;95.40
68793;BME280;55778;54.346;10.210;2023-05-20T03:42:20;102463.88;;;8.59;95.04
68793;BME280;55778;54.346;10.210;2023-05-20T03:44:45;102463.22;;;8.56;95.26
68793;BME280;55778;54.346;10.210;2023-05-20T03:47:11;102462.84;;;8.62;95.07
68793;BME280;55778;54.346;10.210;2023-05-20T03:49:36;102474.91;;;8.72;94.43
68793;BME280;55778;54.346;10.210;2023-05-20T03:52:01;102473.75;;;8.76;93.96
68793;BME280;55778;54.346;10.210;2023-05-20T03:54:27;102466.94;;;8.69;93.90
68793;BME280;55778;54.346;10.210;2023-05-20T03:56:55;102469.59;;;8.84;93.64
68793;BME280;55778;54.346;10.210;2023-05-20T03:59:21;102461.06;;;8.90;93.48
68793;BME280;55778;54.346;10.210;2023-05-20T04:01:47;102457.97;;;8.96;92.66
68793;BME280;55778;54.346;10.210;2023-05-20T04:04:13;102462.94;;;8.90;92.32
68793;BME280;55778;54.346;10.210;2023-05-20T04:06:38;102454.13;;;9.00;92.09
68793;BME280;55778;54.346;10.210;2023-05-20T04:09:04;102454.88;;;9.02;91.41
68793;BME280;55778;54.346;10.210;2023-05-20T04:11:30;102462.38;;;9.13;91.69
68793;BME280;55778;54.346;10.210;2023-05-20T04:13:55;102461.91;;;9.20;91.76
68793;BME280;55778;54.346;10.210;2023-05-20T04:16:22;102458.00;;;9.10;92.50
68793;BME280;55778;54.346;10.210;2023-05-20T04:18:48;102456.28;;;9.09;92.53
68793;BME280;55778;54.346;10.210;2023-05-20T04:21:13;102459.19;;;9.06;92.93
68793;BME280;55778;54.346;10.210;2023-05-20T04:23:39;102459.19;;;9.20;92.62
68793;BME280;55778;54.346;10.210;2023-05-20T04:26:04;102456.84;;;9.14;92.34
68793;BME280;55778;54.346;10.210;2023-05-20T04:28:30;102457.91;;;9.26;92.56
68793;BME280;55778;54.346;10.210;2023-05-20T04:31:02;102456.28;;;9.23;92.42
68793;BME280;55778;54.346;10.210;2023-05-20T04:33:29;102447.31;;;9.21;92.29
68793;BME280;55778;54.346;10.210;2023-05-20T04:35:54;102444.13;;;9.29;92.37
68793;BME280;55778;54.346;10.210;2023-05-20T04:38:26;102448.31;;;9.34;92.48
68793;BME280;55778;54.346;10.210;2023-05-20T04:41:01;102446.56;;;9.47;92.38
68793;BME280;55778;54.346;10.210;2023-05-20T04:43:27;102439.09;;;9.51;92.52
68793;BME280;55778;54.346;10.210;2023-05-20T04:45:56;102443.53;;;9.52;93.12
68793;BME280;55778;54.346;10.210;2023-05-20T04:48:22;102434.78;;;9.61;92.97
68793;BME280;55778;54.346;10.210;2023-05-20T04:50:48;102429.59;;;9.70;92.28
68793;BME280;55778;54.346;10.210;2023-05-20T04:53:17;102434.56;;;9.78;92.05
68793;BME280;55778;54.346;10.210;2023-05-20T04:55:44;102431.41;;;9.98;91.74
68793;BME280;55778;54.346;10.210;2023-05-20T04:58:10;102428.78;;;9.96;92.00
68793;BME280;55778;54.346;10.210;2023-05-20T05:00:40;102437.53;;;10.16;91.96
68793;BME280;55778;54.346;10.210;2023-05-20T05:03:06;102435.69;;;10.16;91.89
68793;BME280;55778;54.346;10.210;2023-05-20T05:05:34;102440.06;;;10.31;92.26
68793;BME280;55778;54.346;10.210;2023-05-20T05:08:00;102446.78;;;10.40;91.91
68793;BME280;55778;54.346;10.210;2023-05-20T05:10:25;102443.75;;;10.44;91.88
68793;BME280;55778;54.346;10.210;2023-05-20T05:12:50;102446.91;;;10.51;91.99
68793;BME280;55778;54.346;10.210;2023-05-20T05:15:16;102439.56;;;10.39;92.06
68793;BME280;55778;54.346;10.210;2023-05-20T05:17:41;102445.94;;;10.52;92.70
68793;BME280;55778;54.346;10.210;2023-05-20T05:20:07;102446.78;;;10.52;92.92
68793;BME280;55778;54.346;10.210;2023-05-20T05:22:33;102448.47;;;10.67;92.94
68793;BME280;55778;54.346;10.210;2023-05-20T05:25:02;102448.16;;;10.72;92.83
68793;BME280;55778;54.346;10.210;2023-05-20T05:27:27;102451.66;;;10.74;93.31
68793;BME280;55778;54.346;10.210;2023-05-20T05:29:52;102452.25;;;10.91;93.38
68793;BME280;55778;54.346;10.210;2023-05-20T05:32:18;102456.16;;;11.00;92.89
68793;BME280;55778;54.346;10.210;2023-05-20T05:34:43;102443.53;;;10.99;93.18
68793;BME280;55778;54.346;10.210;2023-05-20T05:37:09;102455.22;;;11.13;92.93
68793;BME280;55778;54.346;10.210;2023-05-20T05:39:34;102450.53;;;11.15;92.42
68793;BME280;55778;54.346;10.210;2023-05-20T05:42:02;102453.13;;;11.29;91.14
68793;BME280;55778;54.346;10.210;2023-05-20T05:44:27;102455.66;;;11.32;91.41
68793;BME280;55778;54.346;10.210;2023-05-20T05:46:53;102449.63;;;11.40;91.67
68793;BME280;55778;54.346;10.210;2023-05-20T05:49:18;102445.06;;;11.40;91.32
68793;BME280;55778;54.346;10.210;2023-05-20T05:51:44;102449.53;;;11.54;91.14
68793;BME280;55778;54.346;10.210;2023-05-20T05:54:09;102442.63;;;11.48;91.14
68793;BME280;55778;54.346;10.210;2023-05-20T05:56:35;102449.94;;;11.60;91.67
68793;BME280;55778;54.346;10.210;2023-05-20T05:59:00;102449.31;;;11.57;92.21
68793;BME280;55778;54.346;10.210;2023-05-20T06:01:26;102448.44;;;11.69;92.66
68793;BME280;55778;54.346;10.210;2023-05-20T06:03:51;102450.41;;;11.67;92.03
68793;BME280;55778;54.346;10.210;2023-05-20T06:06:16;102449.63;;;11.77;92.18
68793;BME280;55778;54.346;10.210;2023-05-20T06:08:42;102452.25;;;11.79;92.28
68793;BME280;55778;54.346;10.210;2023-05-20T06:11:07;102442.16;;;11.92;92.68
68793;BME280;55778;54.346;10.210;2023-05-20T06:13:33;102453.19;;;12.03;92.20
68793;BME280;55778;54.346;10.210;2023-05-20T06:15:58;102455.38;;;11.98;92.43
68793;BME280;55778;54.346;10.210;2023-05-20T06:18:23;102454.47;;;12.10;91.81
68793;BME280;55778;54.346;10.210;2023-05-20T06:20:58;102465.28;;;12.12;91.15
68793;BME280;55778;54.346;10.210;2023-05-20T06:23:24;102454.63;;;12.20;91.53
68793;BME280;55778;54.346;10.210;2023-05-20T06:25:50;102452.84;;;12.31;91.29
68793;BME280;55778;54.346;10.210;2023-05-20T06:28:15;102446.91;;;12.37;91.28
68793;BME280;55778;54.346;10.210;2023-05-20T06:30:41;102449.94;;;12.45;90.89
68793;BME280;55778;54.346;10.210;2023-05-20T06:33:07;102453.44;;;12.47;91.29
68793;BME280;55778;54.346;10.210;2023-05-20T06:35:32;102461.44;;;12.61;91.00
68793;BME280;55778;54.346;10.210;2023-05-20T06:38:01;102447.28;;;12.67;91.17
68793;BME280;55778;54.346;10.210;2023-05-20T06:40:27;102447.25;;;12.91;89.91
68793;BME280;55778;54.346;10.210;2023-05-20T06:42:52;102450.19;;;13.00;88.20
68793;BME280;55778;54.346;10.210;2023-05-20T06:45:18;102447.84;;;13.07;88.71
68793;BME280;55778;54.346;10.210;2023-05-20T06:47:44;102446.22;;;13.15;87.55
68793;BME280;55778;54.346;10.210;2023-05-20T06:50:10;102443.25;;;13.29;87.20
68793;BME280;55778;54.346;10.210;2023-05-20T06:52:35;102450.13;;;13.46;87.52
68793;BME280;55778;54.346;10.210;2023-05-20T06:55:01;102449.91;;;13.60;85.20
68793;BME280;55778;54.346;10.210;2023-05-20T06:57:27;102447.50;;;13.66;85.88
68793;BME280;55778;54.346;10.210;2023-05-20T06:59:52;102439.56;;;13.85;84.61
68793;BME280;55778;54.346;10.210;2023-05-20T07:02:17;102439.13;;;14.01;85.31
68793;BME280;55778;54.346;10.210;2023-05-20T07:04:43;102438.75;;;14.05;83.89
68793;BME280;55778;54.346;10.210;2023-05-20T07:07:08;102435.88;;;14.29;84.18
68793;BME280;55778;54.346;10.210;2023-05-20T07:09:33;102440.72;;;14.37;83.07
68793;BME280;55778;54.346;10.210;2023-05-20T07:11:59;102430.22;;;14.42;81.80
68793;BME280;55778;54.346;10.210;2023-05-20T07:14:25;102438.78;;;14.48;80.56
68793;BME280;55778;54.346;10.210;2023-05-20T07:16:50;102435.63;;;14.64;80.80
68793;BME280;55778;54.346;10.210;2023-05-20T07:19:15;102436.69;;;14.72;80.11
68793;BME280;55778;54.346;10.210;2023-05-20T07:21:41;102432.38;;;14.90;80.46
68793;BME280;55778;54.346;10.210;2023-05-20T07:24:06;102436.31;;;15.18;78.78
68793;BME280;55778;54.346;10.210;2023-05-20T07:26:31;102434.81;;;15.55;77.90
68793;BME280;55778;54.346;10.210;2023-05-20T07:29:04;102430.69;;;15.70;75.93
68793;BME280;55778;54.346;10.210;2023-05-20T07:31:29;102427.66;;;16.03;75.11
68793;BME280;55778;54.346;10.210;2023-05-20T07:33:56;102425.97;;;15.81;75.88
68793;BME280;55778;54.346;10.210;2023-05-20T07:36:21;102427.94;;;15.70;76.56
68793;BME280;55778;54.346;10.210;2023-05-20T07:38:46;102428.00;;;15.79;75.53
68793;BME280;55778;54.346;10.210;2023-05-20T07:41:12;102432.91;;;15.76;75.50
68793;BME280;55778;54.346;10.210;2023-05-20T07:43:37;102423.81;;;15.75;74.34
68793;BME280;55778;54.346;10.210;2023-05-20T07:46:03;102423.69;;;15.86;74.03
68793;BME280;55778;54.346;10.210;2023-05-20T07:48:28;102420.78;;;15.88;74.06
68793;BME280;55778;54.346;10.210;2023-05-20T07:50:54;102419.84;;;16.18;74.68
68793;BME280;55778;54.346;10.210;2023-05-20T07:53:23;102418.16;;;16.36;73.05
68793;BME280;55778;54.346;10.210;2023-05-20T07:55:48;102417.47;;;16.43;72.88
68793;BME280;55778;54.346;10.210;2023-05-20T07:58:14;102423.00;;;16.62;70.98
68793;BME280;55778;54.346;10.210;2023-05-20T08:00:39;102418.91;;;16.38;70.67
68793;BME280;55778;54.346;10.210;2023-05-20T08:03:05;102421.97;;;16.44;70.93
68793;BME280;55778;54.346;10.210;2023-05-20T08:05:32;102417.19;;;16.65;70.76
68793;BME280;55778;54.346;10.210;2023-05-20T08:07:57;102424.28;;;16.77;70.27
68793;BME280;55778;54.346;10.210;2023-05-20T08:10:22;102420.53;;;16.69;68.84
68793;BME280;55778;54.346;10.210;2023-05-20T08:12:48;102421.97;;;16.54;69.36
68793;BME280;55778;54.346;10.210;2023-05-20T08:15:13;102421.84;;;16.84;69.95
68793;BME280;55778;54.346;10.210;2023-05-20T08:17:39;102424.88;;;17.00;68.36
68793;BME280;55778;54.346;10.210;2023-05-20T08:20:05;102427.03;;;16.87;69.31
68793;BME280;55778;54.346;10.210;2023-05-20T08:22:32;102424.28;;;16.77;69.81
68793;BME280;55778;54.346;10.210;2023-05-20T08:24:57;102424.28;;;16.77;69.17
68793;BME280;55778;54.346;10.210;2023-05-20T08:27:23;102425.59;;;16.73;70.17
68793;BME280;55778;54.346;10.210;2023-05-20T08:29:48;102428.19;;;16.46;71.19
68793;BME280;55778;54.346;10.210;2023-05-20T08:32:14;102422.06;;;16.43;69.01
68793;BME280;55778;54.346;10.210;2023-05-20T08:34:39;102421.50;;;16.39;70.07
68793;BME280;55778;54.346;10.210;2023-05-20T08:37:05;102410.19;;;16.33;69.52
68793;BME280;55778;54.346;10.210;2023-05-20T08:39:30;102423.50;;;16.37;69.23
68793;BME280;55778;54.346;10.210;2023-05-20T08:41:57;102417.09;;;16.18;70.02
68793;BME280;55778;54.346;10.210;2023-05-20T08:44:23;102427.38;;;16.06;69.43
68793;BME280;55778;54.346;10.210;2023-05-20T08:46:49;102411.31;;;16.11;70.10
68793;BME280;55778;54.346;10.210;2023-05-20T08:49:15;102415.81;;;16.22;70.74
68793;BME280;55778;54.346;10.210;2023-05-20T08:51:40;102418.84;;;16.19;69.28
68793;BME280;55778;54.346;10.210;2023-05-20T08:54:07;102414.59;;;16.64;68.74
68793;BME280;55778;54.346;10.210;2023-05-20T08:56:34;102419.22;;;17.01;67.21
68793;BME280;55778;54.346;10.210;2023-05-20T08:59:00;102417.59;;;16.99;66.58
68793;BME280;55778;54.346;10.210;2023-05-20T09:01:25;102417.16;;;17.03;65.97
68793;BME280;55778;54.346;10.210;2023-05-20T09:03:51;102409.25;;;17.46;65.14
68793;BME280;55778;54.346;10.210;2023-05-20T09:06:17;102403.72;;;17.46;61.73
68793;BME280;55778;54.346;10.210;2023-05-20T09:08:47;102393.78;;;17.72;61.21
68793;BME280;55778;54.346;10.210;2023-05-20T09:11:14;102394.31;;;17.76;61.29
68793;BME280;55778;54.346;10.210;2023-05-20T09:13:39;102397.06;;;17.39;61.53
68793;BME280;55778;54.346;10.210;2023-05-20T09:16:05;102393.56;;;17.37;61.47
68793;BME280;55778;54.346;10.210;2023-05-20T09:18:30;102397.00;;;17.58;59.67
68793;BME280;55778;54.346;10.210;2023-05-20T09:20:56;102396.94;;;17.77;60.51
68793;BME280;55778;54.346;10.210;2023-05-20T09:23:21;102392.16;;;17.70;57.30
68793;BME280;55778;54.346;10.210;2023-05-20T09:25:51;102394.75;;;17.81;57.30
68793;BME280;55778;54.346;10.210;2023-05-20T09:28:22;102384.16;;;18.04;57.62
68793;BME280;55778;54.346;10.210;2023-05-20T09:30:56;102387.59;;;17.88;56.76
68793;BME280;55778;54.346;10.210;2023-05-20T09:33:29;102402.44;;;17.50;56.12
68793;BME280;55778;54.346;10.210;2023-05-20T09:36:03;102395.66;;;17.72;56.34
68793;BME280;55778;54.346;10.210;2023-05-20T09:38:37;102391.72;;;18.02;54.30
68793;BME280;55778;54.346;10.210;2023-05-20T09:41:06;102387.47;;;18.07;53.80
68793;BME280;55778;54.346;10.210;2023-05-20T09:43:32;102387.81;;;18.22;53.03
68793;BME280;55778;54.346;10.210;2023-05-20T09:45:58;102382.56;;;18.01;52.29
68793;BME280;55778;54.346;10.210;2023-05-20T09:48:25;102373.59;;;17.99;52.49
68793;BME280;55778;54.346;10.210;2023-05-20T09:50:53;102377.03;;;18.01;51.48
68793;BME280;55778;54.346;10.210;2023-05-20T09:53:19;102374.53;;;18.08;52.17
68793;BME280;55778;54.346;10.210;2023-05-20T09:55:45;102376.72;;;18.04;52.75
68793;BME280;55778;54.346;10.210;2023-05-20T09:58:12;102375.81;;;18.13;53.24
68793;BME280;55778;54.346;10.210;2023-05-20T10:00:38;102381.00;;;17.99;52.84
68793;BME280;55778;54.346;10.210;2023-05-20T10:03:03;102382.31;;;17.67;53.00
68793;BME280;55778;54.346;10.210;2023-05-20T10:05:36;102372.41;;;17.38;53.63
68793;BME280;55778;54.346;10.210;2023-05-20T10:11:09;102364.94;;;17.21;53.42
68793;BME280;55778;54.346;10.210;2023-05-20T10:13:59;102366.22;;;17.17;53.41
68793;BME280;55778;54.346;10.210;2023-05-20T10:19:34;102360.53;;;16.72;54.86
68793;BME280;55778;54.346;10.210;2023-05-20T10:22:08;102360.22;;;16.75;55.68
68793;BME280;55778;54.346;10.210;2023-05-20T10:24:38;102369.06;;;16.69;54.24
68793;BME280;55778;54.346;10.210;2023-05-20T10:27:11;102365.00;;;16.83;55.43
68793;BME280;55778;54.346;10.210;2023-05-20T10:29:54;102357.63;;;16.74;55.41
68793;BME280;55778;54.346;10.210;2023-05-20T10:32:24;102350.09;;;16.66;56.51
68793;BME280;55778;54.346;10.210;2023-05-20T10:34:50;102353.28;;;16.62;56.14
68793;BME280;55778;54.346;10.210;2023-05-20T10:37:23;102353.88;;;16.75;56.02
68793;BME280;55778;54.346;10.210;2023-05-20T10:39:49;102344.31;;;16.79;56.23
68793;BME280;55778;54.346;10.210;2023-05-20T10:42:15;102349.78;;;16.88;56.24
68793;BME280;55778;54.346;10.210;2023-05-20T10:44:44;102337.41;;;17.02;57.05
68793;BME280;55778;54.346;10.210;2023-05-20T10:47:10;102340.25;;;17.29;56.43
68793;BME280;55778;54.346;10.210;2023-05-20T10:49:40;102325.31;;;17.68;55.57
68793;BME280;55778;54.346;10.210;2023-05-20T10:52:08;102327.44;;;17.47;54.91
68793;BME280;55778;54.346;10.210;2023-05-20T10:54:35;102343.34;;;17.16;55.42
68793;BME280;55778;54.346;10.210;2023-05-20T10:57:06;102340.44;;;17.18;55.74
68793;BME280;55778;54.346;10.210;2023-05-20T10:59:34;102341.06;;;17.02;56.66
68793;BME280;55778;54.346;10.210;2023-05-20T11:02:00;102336.38;;;17.12;56.95
68793;BME280;55778;54.346;10.210;2023-05-20T11:04:27;102331.31;;;17.08;57.26
68793;BME280;55778;54.346;10.210;2023-05-20T11:06:53;102327.44;;;17.37;57.16
68793;BME280;55778;54.346;10.210;2023-05-20T11:09:19;102319.81;;;17.58;57.17
68793;BME280;55778;54.346;10.210;2023-05-20T11:11:45;102327.31;;;17.66;56.65
68793;BME280;55778;54.346;10.210;2023-05-20T11:14:10;102308.59;;;17.69;57.22
68793;BME280;55778;54.346;10.210;2023-05-20T11:16:39;102309.34;;;17.89;56.63
68793;BME280;55778;54.346;10.210;2023-05-20T11:19:08;102312.78;;;17.73;56.67
68793;BME280;55778;54.346;10.210;2023-05-20T11:21:44;102298.63;;;17.86;56.32
68793;BME280;55778;54.346;10.210;2023-05-20T11:24:11;102294.94;;;17.50;58.63
68793;BME280;55778;54.346;10.210;2023-05-20T11:26:37;102307.69;;;17.51;57.50
68793;BME280;55778;54.346;10.210;2023-05-20T11:29:02;102301.47;;;17.67;57.64
68793;BME280;55778;54.346;10.210;2023-05-20T11:31:29;102311.53;;;17.85;57.04
68793;BME280;55778;54.346;10.210;2023-05-20T11:33:57;102303.69;;;17.91;57.18
68793;BME280;55778;54.346;10.210;2023-05-20T11:36:23;102311.88;;;18.18;56.34
68793;BME280;55778;54.346;10.210;2023-05-20T11:38:50;102308.56;;;18.32;56.52
68793;BME280;55778;54.346;10.210;2023-05-20T11:41:15;102309.53;;;18.23;55.14
68793;BME280;55778;54.346;10.210;2023-05-20T11:43:41;102304.75;;;18.42;55.66
68793;BME280;55778;54.346;10.210;2023-05-20T11:46:06;102302.28;;;18.57;55.26
68793;BME280;55778;54.346;10.210;2023-05-20T11:48:32;102303.69;;;18.86;55.13
68793;BME280;55778;54.346;10.210;2023-05-20T11:50:57;102295.84;;;18.99;54.98
68793;BME280;55778;54.346;10.210;2023-05-20T11:53:23;102286.97;;;19.39;54.39
68793;BME280;55778;54.346;10.210;2023-05-20T11:55:56;102282.66;;;19.44;53.49
68793;BME280;55778;54.346;10.210;2023-05-20T11:58:24;102284.94;;;19.23;52.14
68793;BME280;55778;54.346;10.210;2023-05-20T12:00:50;102278.69;;;19.21;52.90
68793;BME280;55778;54.346;10.210;2023-05-20T12:03:15;102289.84;;;19.29;51.76
68793;BME280;55778;54.346;10.210;2023-05-20T12:05:41;102288.84;;;19.38;51.42
68793;BME280;55778;54.346;10.210;2023-05-20T12:08:06;102279.50;;;19.14;52.43
68793;BME280;55778;54.346;10.210;2023-05-20T12:10:32;102274.63;;;19.00;53.79
68793;BME280;55778;54.346;10.210;2023-05-20T12:12:59;102269.72;;;19.19;53.32
68793;BME280;55778;54.346;10.210;2023-05-20T12:15:25;102268.22;;;18.99;53.29
68793;BME280;55778;54.346;10.210;2023-05-20T12:17:51;102267.44;;;18.64;54.22
68793;BME280;55778;54.346;10.210;2023-05-20T12:20:20;102271.78;;;18.92;54.78
68793;BME280;55778;54.346;10.210;2023-05-20T12:22:45;102263.81;;;19.14;53.13
68793;BME280;55778;54.346;10.210;2023-05-20T12:25:12;102253.41;;;19.34;52.91
68793;BME280;55778;54.346;10.210;2023-05-20T12:27:39;102267.50;;;19.64;53.08
68793;BME280;55778;54.346;10.210;2023-05-20T12:30:05;102260.31;;;19.38;52.99
68793;BME280;55778;54.346;10.210;2023-05-20T12:32:30;102259.06;;;19.74;52.47
68793;BME280;55778;54.346;10.210;2023-05-20T12:34:56;102254.91;;;19.78;51.60
68793;BME280;55778;54.346;10.210;2023-05-20T12:37:21;102262.25;;;19.95;51.56
68793;BME280;55778;54.346;10.210;2023-05-20T12:39:46;102260.72;;;20.17;51.86
68793;BME280;55778;54.346;10.210;2023-05-20T12:42:12;102262.28;;;20.19;50.59
68793;BME280;55778;54.346;10.210;2023-05-20T12:44:37;102260.22;;;20.21;50.41